Yuma, AZ

11:35 PM MST on September 20, 2014 (GMT -0700)
Caballero Park | Change Station
CLOSE
Current Station
Personal Weather Station
Location: Yuma, AZ
Elevation: 200 ft
Nearby Weather Stations

Elev 200 ft 32.67 °N, 114.63 °W | Updated 49 seconds ago

Clear
Clear
81.3 °F
Feels Like 84 °F
N
5.8
Wind Variable Wind from ESE

Today
High -- | Low -- °F
--% Chance of Precip.
Yesterday
High -- | Low -- °F
Precip. -- in
6:25 AM 6:37 PM
Waning Crescent, 8% visible
Pressure 29.78 in
Visibility 10.0 miles
Clouds Clear
Heat Index 84 °F
Dew Point 67 °F
Humidity 62%
Rainfall 0.00 in
Snow Depth 0 in , 0 in , 0 in
UV 0 out of 12
Pollen 8.60 out of 12
Air Quality Not available.
Flu Activity Not available.
METAR KNYL 210557Z 16007KT 10SM CLR 29/18 A2979 RMK AO2 SLP084 T02940178 10378 20294 51017 $

More Conditions Fewer Conditions

Pressure 29.78 in
Visibility 10.0 miles
Clouds Clear
Heat Index 84 °F
Dew Point 67 °F
Humidity 62%
Rainfall 0.00 in
Snow Depth 0 in , 0 in , 0 in
UV 0 out of 12
Pollen 8.60 out of 12
Air Quality Not available.
Flu Activity Not available.
METAR KNYL 210557Z 16007KT 10SM CLR 29/18 A2979 RMK AO2 SLP084 T02940178 10378 20294 51017 $

More Conditions Fewer Conditions

10-Day Weather Forecast

Almanac

Astronomy

Sep. 20, 2014 Rise Set
Actual Time 6:25 AM MST 6:37 PM MST
Civil Twilight 6:00 AM MST 7:02 PM MST
Nautical Twilight 5:32 AM MST 7:31 PM MST
Astronomical Twilight 5:03 AM MST 8:00 PM MST
Moon 3:17 AM MST (9/20) 4:36 PM MST (9/20)
Length of Visible Light 13h 01m
Length of Day
12h 12m
Tomorrow will be 1m 59s shorter.
Waning Crescent, 8% of the Moon is Illuminated
Sep 21
Waning Crescent
Sep 24
New
Oct 1
First Quarter
Oct 8
Full
Oct 15
Last Quarter

Community

WunderPhotos

Upload Photos

1,755,098 photos uploaded!

Nearby

Snow Depth

Station Depth Elevation
Maverick Fork 0 in 9200 ft
Promontory 0 in 7930 ft
Wildcat 0 in 7850 ft
Workman Creek 2 in 6900 ft
White Horse Lake 0 in 7180 ft

Earthquake Activity

City Distance Mag. Time & Date
San Felipe, Mexico 135 miles 4.2 3:13 PM MST
2014-09-17
Minimum magnitude displayed is 2.5.

Coastal Water Temperatures

Place Temperature
No Stations Reporting

Nearby Weather Stations